Terminal Aerodrome Forecast
Issued by NWS Sioux Falls, SD

Home | Current Version | Previous Version | Text Only | Print | Product List | Glossary On
Versions: 1 2 3 4 5 6 7 8 9 10 11 12 13 14 15 16
000
FTUS43 KFSD 272337
TAFSUX
TAF
KSUX 272337Z 2800/2824 30012KT P6SM SCT080
     FM280200 29007KT P6SM FEW120
     FM281500 32018G25KT P6SM BKN120=

USA.gov is the U.S. government's official web portal to all federal, state and local government web resources and services.